Time;durP1;ratioP1;P1;durP2;ratioP2;P2;SDS_P1;SDS_P2;PMS_P1;PMS_P2;Temp;Humidity;BMP_temperature;BMP_pressure;BME280_temperature;BME280_humidity;BME280_pressure;Samples;Min_cycle;Max_cycle;Signal;HPM_P1;HPM_P2
2023/07/26 00:02:00;;;;;;;2.92;1.52;;;;;;;;;;5108043;28;20071;-64
2023/07/26 00:04:28;;;;;;;2.28;1.42;;;;;;;;;;5104924;28;20051;-64
2023/07/26 00:06:57;;;;;;;2.42;1.60;;;;;;;;;;5108247;28;20097;-63
2023/07/26 00:09:26;;;;;;;2.33;1.48;;;;;;;;;;5107685;27;20047;-64
2023/07/26 00:11:56;;;;;;;4.65;1.80;;;;;;;;;;5109522;28;20051;-64
2023/07/26 00:14:24;;;;;;;3.17;1.80;;;;;;;;;;5108065;27;20044;-64
2023/07/26 00:16:53;;;;;;;2.88;1.58;;;;;;;;;;5109390;28;20485;-64
2023/07/26 00:19:23;;;;;;;2.30;1.33;;;;;;;;;;5107016;27;20723;-64
2023/07/26 00:21:51;;;;;;;2.10;1.30;;;;;;;;;;5108785;28;20046;-64
2023/07/26 00:24:20;;;;;;;2.65;1.70;;;;;;;;;;5108944;28;20425;-65
2023/07/26 00:26:48;;;;;;;3.13;2.00;;;;;;;;;;5107749;27;20048;-64
2023/07/26 00:29:18;;;;;;;5.15;1.75;;;;;;;;;;5108307;27;20043;-65
2023/07/26 00:31:46;;;;;;;2.22;1.52;;;;;;;;;;5109006;28;20039;-66
2023/07/26 00:34:14;;;;;;;3.28;1.70;;;;;;;;;;5105965;28;20079;-65
2023/07/26 00:36:43;;;;;;;3.38;1.55;;;;;;;;;;5108356;28;20126;-66
2023/07/26 00:39:12;;;;;;;2.88;1.90;;;;;;;;;;5106530;28;20109;-65
2023/07/26 00:41:40;;;;;;;2.47;1.50;;;;;;;;;;5109309;28;20453;-66
2023/07/26 00:44:08;;;;;;;3.95;1.60;;;;;;;;;;5106775;27;20043;-65
2023/07/26 00:46:38;;;;;;;2.72;1.38;;;;;;;;;;5109070;28;20040;-65
2023/07/26 00:49:07;;;;;;;3.80;1.70;;;;;;;;;;5107564;28;20155;-65
2023/07/26 00:51:37;;;;;;;3.28;1.75;;;;;;;;;;5108723;28;20047;-65
2023/07/26 00:54:06;;;;;;;4.03;1.88;;;;;;;;;;5102413;27;20047;-65
2023/07/26 00:56:35;;;;;;;2.78;1.55;;;;;;;;;;5106149;28;20036;-65
2023/07/26 00:59:04;;;;;;;4.72;1.27;;;;;;;;;;5106028;27;20402;-66
2023/07/26 01:01:35;;;;;;;5.80;1.80;;;;;;;;;;5106221;28;20571;-65
2023/07/26 01:04:05;;;;;;;4.03;1.73;;;;;;;;;;5107235;22;20137;-63
2023/07/26 01:06:39;;;;;;;2.97;1.67;;;;;;;;;;5096986;27;20101;-63
2023/07/26 01:09:10;;;;;;;3.53;1.38;;;;;;;;;;5101676;27;20039;-61
2023/07/26 01:11:41;;;;;;;2.67;1.92;;;;;;;;;;5100781;28;20446;-61
2023/07/26 01:14:13;;;;;;;3.97;2.05;;;;;;;;;;5097887;27;20325;-61
2023/07/26 01:16:42;;;;;;;4.82;2.10;;;;;;;;;;5094890;28;20046;-60
2023/07/26 01:19:12;;;;;;;3.70;1.98;;;;;;;;;;5098864;28;20587;-61
2023/07/26 01:21:42;;;;;;;4.53;2.25;;;;;;;;;;5099704;28;20452;-61
2023/07/26 01:24:10;;;;;;;3.33;2.05;;;;;;;;;;5100694;27;20044;-61
2023/07/26 01:26:39;;;;;;;3.20;1.90;;;;;;;;;;5101585;27;20569;-63
2023/07/26 01:29:07;;;;;;;5.40;2.17;;;;;;;;;;5101673;28;20133;-60
2023/07/26 01:31:36;;;;;;;6.22;1.90;;;;;;;;;;5097463;28;20091;-61
2023/07/26 01:34:06;;;;;;;5.28;2.33;;;;;;;;;;5103317;27;20044;-61
2023/07/26 01:36:35;;;;;;;7.30;2.38;;;;;;;;;;5100463;27;20092;-60
2023/07/26 01:39:07;;;;;;;4.75;2.30;;;;;;;;;;5101930;27;20300;-63
2023/07/26 01:41:36;;;;;;;6.47;2.65;;;;;;;;;;5102006;28;20104;-62
2023/07/26 01:44:04;;;;;;;4.38;2.35;;;;;;;;;;5100594;28;20043;-63
2023/07/26 01:46:32;;;;;;;4.93;2.42;;;;;;;;;;5101031;28;20044;-61
2023/07/26 01:49:01;;;;;;;3.83;2.47;;;;;;;;;;5100546;27;20052;-63
2023/07/26 01:51:29;;;;;;;4.22;2.45;;;;;;;;;;5101372;28;20462;-63
2023/07/26 01:53:58;;;;;;;8.63;3.00;;;;;;;;;;5100660;28;20040;-66
2023/07/26 01:56:28;;;;;;;7.63;2.65;;;;;;;;;;5100672;28;20069;-59
2023/07/26 01:58:56;;;;;;;4.57;2.90;;;;;;;;;;5100505;28;20079;-63
2023/07/26 02:01:24;;;;;;;4.20;2.80;;;;;;;;;;5106198;28;20493;-60
2023/07/26 02:04:00;;;;;;;4.10;2.25;;;;;;;;;;5097588;28;20055;-64
2023/07/26 02:06:29;;;;;;;5.00;2.97;;;;;;;;;;5105028;28;20100;-59
2023/07/26 02:08:57;;;;;;;4.57;2.78;;;;;;;;;;5101617;28;20044;-65
2023/07/26 02:11:27;;;;;;;5.13;2.50;;;;;;;;;;5103904;28;20108;-58
2023/07/26 02:13:56;;;;;;;5.22;2.80;;;;;;;;;;5102367;27;20098;-61
2023/07/26 02:16:24;;;;;;;5.40;2.67;;;;;;;;;;5102301;28;20126;-65
2023/07/26 02:18:52;;;;;;;4.68;2.90;;;;;;;;;;5102011;28;20047;-66
2023/07/26 02:21:21;;;;;;;5.45;2.55;;;;;;;;;;5102315;28;20485;-63
2023/07/26 02:23:49;;;;;;;5.32;2.75;;;;;;;;;;5105420;28;20435;-60
2023/07/26 02:26:17;;;;;;;5.43;2.88;;;;;;;;;;5106973;28;20086;-60
2023/07/26 02:28:47;;;;;;;3.20;2.20;;;;;;;;;;5106055;28;20109;-62
2023/07/26 02:31:15;;;;;;;5.30;2.78;;;;;;;;;;5103481;28;20309;-60
2023/07/26 02:33:44;;;;;;;5.22;2.65;;;;;;;;;;5105050;28;20104;-62
2023/07/26 02:36:12;;;;;;;3.75;2.70;;;;;;;;;;5107172;28;20097;-65
2023/07/26 02:38:41;;;;;;;7.05;3.25;;;;;;;;;;5103114;28;20116;-63
2023/07/26 02:41:09;;;;;;;5.82;2.92;;;;;;;;;;5104792;28;20043;-61
2023/07/26 02:43:37;;;;;;;4.97;2.88;;;;;;;;;;5105995;28;20480;-59
2023/07/26 02:46:10;;;;;;;6.57;3.03;;;;;;;;;;5102209;28;20051;-64
2023/07/26 02:48:39;;;;;;;5.28;2.72;;;;;;;;;;5105633;28;20040;-59
2023/07/26 02:51:07;;;;;;;3.75;2.28;;;;;;;;;;5106450;28;20067;-62
2023/07/26 02:53:35;;;;;;;5.85;2.97;;;;;;;;;;5106680;28;20052;-61
2023/07/26 02:56:04;;;;;;;6.55;2.78;;;;;;;;;;5103344;28;20044;-63
2023/07/26 02:58:32;;;;;;;5.18;3.05;;;;;;;;;;5107255;28;20080;-60
2023/07/26 03:01:00;;;;;;;5.05;3.08;;;;;;;;;;5104188;28;20130;-61
2023/07/26 03:03:30;;;;;;;3.40;2.28;;;;;;;;;;5105129;28;20036;-61
2023/07/26 03:05:59;;;;;;;6.07;2.92;;;;;;;;;;5101605;28;20081;-62
2023/07/26 03:08:27;;;;;;;4.32;2.42;;;;;;;;;;5105839;28;20131;-61
2023/07/26 03:10:55;;;;;;;5.20;2.50;;;;;;;;;;5105228;28;20562;-60
2023/07/26 03:13:24;;;;;;;4.30;2.58;;;;;;;;;;5107438;28;20052;-60
2023/07/26 03:15:52;;;;;;;5.80;2.78;;;;;;;;;;5100774;28;20496;-62
2023/07/26 03:18:21;;;;;;;7.93;3.20;;;;;;;;;;5102662;28;20478;-60
2023/07/26 03:20:51;;;;;;;6.85;2.85;;;;;;;;;;5100115;28;20105;-60
2023/07/26 03:23:19;;;;;;;4.53;2.70;;;;;;;;;;5105297;28;20044;-60
2023/07/26 03:25:47;;;;;;;5.05;3.05;;;;;;;;;;5105152;28;20048;-59
2023/07/26 03:28:16;;;;;;;7.55;2.85;;;;;;;;;;5107050;28;20488;-63
2023/07/26 03:30:44;;;;;;;4.30;2.65;;;;;;;;;;5107195;27;20055;-60
2023/07/26 03:33:12;;;;;;;5.78;3.22;;;;;;;;;;5109040;28;20075;-60
2023/07/26 03:35:41;;;;;;;5.13;2.70;;;;;;;;;;5103629;28;20074;-60
2023/07/26 03:38:10;;;;;;;7.20;3.53;;;;;;;;;;5109299;28;20047;-59
2023/07/26 03:40:40;;;;;;;3.75;2.45;;;;;;;;;;5107893;28;20120;-60
2023/07/26 03:43:08;;;;;;;4.72;2.85;;;;;;;;;;5105406;27;20545;-63
2023/07/26 03:45:37;;;;;;;5.95;3.20;;;;;;;;;;5107071;27;20123;-65
2023/07/26 03:48:06;;;;;;;7.05;3.05;;;;;;;;;;5108843;28;20075;-60
2023/07/26 03:50:34;;;;;;;9.13;3.13;;;;;;;;;;5108088;28;20039;-59
2023/07/26 03:53:03;;;;;;;5.88;3.65;;;;;;;;;;5107287;27;20047;-61
2023/07/26 03:55:32;;;;;;;5.40;3.10;;;;;;;;;;5108761;28;20043;-62
2023/07/26 03:58:01;;;;;;;6.28;3.70;;;;;;;;;;5109184;28;20043;-61
2023/07/26 04:00:29;;;;;;;5.55;2.95;;;;;;;;;;5104416;27;20079;-59
2023/07/26 04:02:57;;;;;;;3.83;2.67;;;;;;;;;;5107767;28;20047;-60
2023/07/26 04:05:26;;;;;;;3.95;2.60;;;;;;;;;;5103821;28;20066;-61
2023/07/26 04:07:54;;;;;;;5.88;3.28;;;;;;;;;;5108553;28;20102;-62
2023/07/26 04:10:23;;;;;;;5.32;2.97;;;;;;;;;;5107419;27;20043;-63
2023/07/26 04:12:52;;;;;;;4.30;3.15;;;;;;;;;;5109260;28;20104;-60
2023/07/26 04:15:21;;;;;;;5.75;3.15;;;;;;;;;;5105810;27;20039;-65
2023/07/26 04:17:49;;;;;;;6.22;3.35;;;;;;;;;;5107399;27;20040;-60
2023/07/26 04:20:18;;;;;;;8.18;3.78;;;;;;;;;;5101274;28;20066;-62
2023/07/26 04:22:46;;;;;;;5.35;3.00;;;;;;;;;;5108681;28;20126;-62
2023/07/26 04:25:14;;;;;;;6.57;3.03;;;;;;;;;;5105955;28;20115;-60
2023/07/26 04:27:43;;;;;;;6.10;3.22;;;;;;;;;;5105963;28;20142;-60
2023/07/26 04:30:12;;;;;;;7.88;3.83;;;;;;;;;;5103759;27;20462;-61
2023/07/26 04:32:41;;;;;;;5.57;3.15;;;;;;;;;;5108957;28;20071;-62
2023/07/26 04:35:09;;;;;;;5.85;3.50;;;;;;;;;;5102830;28;20504;-62
2023/07/26 04:37:38;;;;;;;6.70;3.35;;;;;;;;;;5106256;28;20052;-61
2023/07/26 04:40:07;;;;;;;6.95;3.67;;;;;;;;;;5103564;28;20473;-63
2023/07/26 04:42:35;;;;;;;8.52;3.63;;;;;;;;;;5103780;28;20082;-60
2023/07/26 04:45:04;;;;;;;7.28;3.90;;;;;;;;;;5106068;28;20090;-64
2023/07/26 04:47:34;;;;;;;7.82;3.67;;;;;;;;;;5108100;28;20116;-61
2023/07/26 04:50:02;;;;;;;7.82;4.32;;;;;;;;;;5105837;28;20040;-62
2023/07/26 04:52:33;;;;;;;7.50;4.30;;;;;;;;;;5106348;28;20040;-65
2023/07/26 04:55:01;;;;;;;6.78;4.13;;;;;;;;;;5106104;28;20051;-60
2023/07/26 04:57:30;;;;;;;10.20;4.22;;;;;;;;;;5107973;28;20488;-61
2023/07/26 04:59:58;;;;;;;9.43;4.50;;;;;;;;;;5101463;28;20040;-67
2023/07/26 05:02:26;;;;;;;7.93;4.30;;;;;;;;;;5103781;28;20091;-67
2023/07/26 05:04:56;;;;;;;8.30;5.07;;;;;;;;;;5101797;27;20043;-60
2023/07/26 05:07:24;;;;;;;10.73;5.32;;;;;;;;;;5107733;28;20104;-61
2023/07/26 05:09:53;;;;;;;12.88;6.03;;;;;;;;;;5103125;28;20139;-61
2023/07/26 05:12:21;;;;;;;11.38;5.90;;;;;;;;;;5107835;28;20071;-64
2023/07/26 05:14:50;;;;;;;10.75;5.78;;;;;;;;;;5103587;28;20083;-62
2023/07/26 05:17:18;;;;;;;11.18;5.75;;;;;;;;;;5101991;28;20047;-62
2023/07/26 05:19:47;;;;;;;11.70;5.95;;;;;;;;;;5101440;28;20048;-63
2023/07/26 05:22:16;;;;;;;13.43;6.28;;;;;;;;;;5105921;28;20040;-62
2023/07/26 05:24:45;;;;;;;13.73;7.57;;;;;;;;;;5100470;28;20070;-67
2023/07/26 05:27:13;;;;;;;13.27;6.75;;;;;;;;;;5106177;28;20052;-63
2023/07/26 05:29:41;;;;;;;10.93;6.07;;;;;;;;;;5106242;27;20492;-67
2023/07/26 05:32:10;;;;;;;11.48;6.43;;;;;;;;;;5103005;28;20174;-62
2023/07/26 05:34:38;;;;;;;11.00;6.13;;;;;;;;;;5102130;28;20126;-63
2023/07/26 05:37:07;;;;;;;17.75;6.63;;;;;;;;;;5108351;28;20076;-62
2023/07/26 05:39:36;;;;;;;10.57;6.28;;;;;;;;;;5105639;27;20105;-64
2023/07/26 05:42:05;;;;;;;14.18;6.90;;;;;;;;;;5103599;28;20044;-62
2023/07/26 05:44:33;;;;;;;12.65;7.35;;;;;;;;;;5105343;27;20044;-64
2023/07/26 05:47:02;;;;;;;14.93;7.45;;;;;;;;;;5106775;27;20526;-64
2023/07/26 05:49:30;;;;;;;13.52;7.32;;;;;;;;;;5104776;28;20109;-64
2023/07/26 05:51:59;;;;;;;13.05;6.72;;;;;;;;;;5103181;28;20125;-64
2023/07/26 05:54:27;;;;;;;15.95;7.47;;;;;;;;;;5106070;28;20544;-67
2023/07/26 05:56:57;;;;;;;18.15;7.30;;;;;;;;;;5105560;28;20071;-62
2023/07/26 05:59:25;;;;;;;14.63;7.13;;;;;;;;;;5107172;28;20075;-64
2023/07/26 06:01:54;;;;;;;12.32;7.03;;;;;;;;;;5102942;28;20650;-63
2023/07/26 06:04:22;;;;;;;12.40;7.43;;;;;;;;;;5099556;28;20135;-62
2023/07/26 06:06:51;;;;;;;12.73;7.25;;;;;;;;;;5105106;28;20545;-62
2023/07/26 06:09:20;;;;;;;14.43;6.65;;;;;;;;;;5105925;28;20096;-62
2023/07/26 06:11:49;;;;;;;14.50;7.28;;;;;;;;;;5107604;28;20084;-64
2023/07/26 06:14:26;;;;;;;11.95;6.70;;;;;;;;;;5103426;27;20047;-66
2023/07/26 06:16:54;;;;;;;19.73;8.13;;;;;;;;;;5104742;28;20789;-62
2023/07/26 06:19:23;;;;;;;14.93;6.93;;;;;;;;;;5102458;28;20143;-62
2023/07/26 06:21:55;;;;;;;16.88;8.15;;;;;;;;;;5106685;28;20073;-62
2023/07/26 06:24:24;;;;;;;16.48;8.30;;;;;;;;;;5106757;28;20048;-63
2023/07/26 06:26:53;;;;;;;12.02;7.25;;;;;;;;;;5107407;28;20101;-63
2023/07/26 06:29:21;;;;;;;13.48;8.30;;;;;;;;;;5104315;28;20134;-62
2023/07/26 06:31:51;;;;;;;16.50;8.52;;;;;;;;;;5106721;28;20048;-65
2023/07/26 06:34:20;;;;;;;14.07;7.90;;;;;;;;;;5104062;28;20047;-63
2023/07/26 06:36:48;;;;;;;19.48;8.65;;;;;;;;;;5105762;28;20142;-61
2023/07/26 06:39:16;;;;;;;20.92;8.15;;;;;;;;;;5105215;28;20105;-63
2023/07/26 06:41:45;;;;;;;15.82;8.00;;;;;;;;;;5107537;28;20055;-61
2023/07/26 06:44:13;;;;;;;18.70;8.63;;;;;;;;;;5105971;28;20135;-61
2023/07/26 06:46:42;;;;;;;16.63;8.07;;;;;;;;;;5107072;28;20509;-60
2023/07/26 06:49:12;;;;;;;13.50;7.53;;;;;;;;;;5102094;28;20104;-61
2023/07/26 06:51:40;;;;;;;10.98;6.53;;;;;;;;;;5103505;28;20538;-63
2023/07/26 06:54:08;;;;;;;14.63;7.85;;;;;;;;;;5106219;28;20067;-62
2023/07/26 06:56:37;;;;;;;14.55;7.97;;;;;;;;;;5107181;28;20473;-60
2023/07/26 06:59:11;;;;;;;16.98;8.10;;;;;;;;;;5105311;28;20456;-61
2023/07/26 07:01:39;;;;;;;17.23;7.65;;;;;;;;;;5106398;28;20050;-61
2023/07/26 07:04:07;;;;;;;15.68;8.27;;;;;;;;;;5105396;27;20104;-62
2023/07/26 07:06:43;;;;;;;15.73;7.97;;;;;;;;;;5108608;28;20054;-61
2023/07/26 07:09:12;;;;;;;13.98;7.70;;;;;;;;;;5105818;28;20510;-64
2023/07/26 07:11:40;;;;;;;15.38;7.32;;;;;;;;;;5108399;28;21505;-60
2023/07/26 07:14:09;;;;;;;16.60;7.35;;;;;;;;;;5104905;27;20044;-64
2023/07/26 07:16:38;;;;;;;12.15;7.68;;;;;;;;;;5109298;27;20047;-63
2023/07/26 07:19:07;;;;;;;14.10;7.28;;;;;;;;;;5108891;27;20048;-61
2023/07/26 07:21:36;;;;;;;18.05;7.00;;;;;;;;;;5108706;27;20055;-61
2023/07/26 07:24:07;;;;;;;13.15;7.47;;;;;;;;;;5104409;27;20564;-68
2023/07/26 07:26:35;;;;;;;13.35;6.95;;;;;;;;;;5103423;27;20373;-61
2023/07/26 07:29:03;;;;;;;13.27;7.05;;;;;;;;;;5103282;27;20540;-65
2023/07/26 07:31:32;;;;;;;12.10;6.45;;;;;;;;;;5096038;28;20066;-61
2023/07/26 07:34:00;;;;;;;16.35;6.43;;;;;;;;;;5104547;28;20104;-63
2023/07/26 07:36:29;;;;;;;13.25;6.97;;;;;;;;;;5107020;27;20516;-61
2023/07/26 07:38:57;;;;;;;10.43;5.95;;;;;;;;;;5107648;27;20048;-62
2023/07/26 07:41:27;;;;;;;9.27;6.00;;;;;;;;;;5109296;28;20048;-62
2023/07/26 07:43:55;;;;;;;12.85;5.70;;;;;;;;;;5106033;27;20457;-62
2023/07/26 07:46:28;;;;;;;11.10;5.97;;;;;;;;;;5110251;28;20128;-62
2023/07/26 07:48:56;;;;;;;11.98;6.15;;;;;;;;;;5107913;27;20131;-62
2023/07/26 07:51:25;;;;;;;9.85;5.28;;;;;;;;;;5108741;28;20047;-63
2023/07/26 07:53:53;;;;;;;7.82;4.82;;;;;;;;;;5106700;28;22077;-64
2023/07/26 07:56:22;;;;;;;11.35;4.97;;;;;;;;;;5106231;28;20576;-63
2023/07/26 07:58:51;;;;;;;11.88;5.10;;;;;;;;;;5109574;28;20127;-62
2023/07/26 08:01:20;;;;;;;7.60;4.53;;;;;;;;;;5108794;27;20079;-66
2023/07/26 08:03:48;;;;;;;10.40;5.13;;;;;;;;;;5105830;28;20134;-64
2023/07/26 08:06:17;;;;;;;7.63;4.80;;;;;;;;;;5104045;27;20470;-63
2023/07/26 08:08:45;;;;;;;10.13;5.05;;;;;;;;;;5109683;28;20408;-62
2023/07/26 08:11:13;;;;;;;7.43;4.35;;;;;;;;;;5109612;28;20104;-62
2023/07/26 08:13:42;;;;;;;8.27;4.93;;;;;;;;;;5108866;28;20039;-62
2023/07/26 08:16:12;;;;;;;9.65;4.25;;;;;;;;;;5103953;27;20043;-62
2023/07/26 08:18:40;;;;;;;7.90;3.97;;;;;;;;;;5105703;27;20040;-62
2023/07/26 08:21:09;;;;;;;6.43;3.83;;;;;;;;;;5106364;28;20128;-62
2023/07/26 08:23:37;;;;;;;7.78;4.07;;;;;;;;;;5109216;28;20132;-62
2023/07/26 08:26:07;;;;;;;9.18;4.03;;;;;;;;;;5109404;27;20048;-62
2023/07/26 08:28:35;;;;;;;5.97;3.75;;;;;;;;;;5107138;27;20119;-64
2023/07/26 08:31:04;;;;;;;8.60;3.97;;;;;;;;;;5106632;28;20093;-63
2023/07/26 08:33:33;;;;;;;9.43;4.20;;;;;;;;;;5105531;28;20071;-62
2023/07/26 08:36:02;;;;;;;10.77;4.65;;;;;;;;;;5107807;27;20063;-63
2023/07/26 08:38:30;;;;;;;6.75;3.78;;;;;;;;;;5106403;28;20331;-62
2023/07/26 08:40:58;;;;;;;6.28;3.90;;;;;;;;;;5106777;27;20079;-63
2023/07/26 08:43:31;;;;;;;7.43;4.60;;;;;;;;;;5108820;28;20066;-63
2023/07/26 08:46:01;;;;;;;8.00;4.32;;;;;;;;;;5108955;27;20176;-63
2023/07/26 08:48:29;;;;;;;8.55;4.07;;;;;;;;;;5107412;27;20381;-62
2023/07/26 08:51:00;;;;;;;7.97;3.60;;;;;;;;;;5107409;28;20055;-63
2023/07/26 08:53:29;;;;;;;6.07;3.72;;;;;;;;;;5107750;28;20110;-63
2023/07/26 08:55:58;;;;;;;7.18;3.72;;;;;;;;;;5106703;28;20706;-62
2023/07/26 08:58:26;;;;;;;7.25;3.60;;;;;;;;;;5107268;27;20092;-62
2023/07/26 09:00:55;;;;;;;5.05;3.33;;;;;;;;;;5107460;27;20464;-62
2023/07/26 09:03:23;;;;;;;7.15;3.17;;;;;;;;;;5105248;27;20492;-62
2023/07/26 09:06:04;;;;;;;4.72;3.13;;;;;;;;;;5105092;28;20070;-62
2023/07/26 09:08:32;;;;;;;5.80;2.75;;;;;;;;;;5105473;28;20093;-62
2023/07/26 09:11:01;;;;;;;4.88;2.50;;;;;;;;;;5108366;28;20050;-62
2023/07/26 09:13:29;;;;;;;6.18;2.65;;;;;;;;;;5107050;27;20104;-62
2023/07/26 09:16:00;;;;;;;3.63;2.72;;;;;;;;;;5106806;27;20083;-63
2023/07/26 09:18:30;;;;;;;4.03;2.38;;;;;;;;;;5103869;28;20127;-63
2023/07/26 09:21:02;;;;;;;3.25;2.17;;;;;;;;;;5107493;28;20498;-63
2023/07/26 09:23:32;;;;;;;4.00;2.78;;;;;;;;;;5106397;28;20541;-66
2023/07/26 09:26:01;;;;;;;7.07;2.47;;;;;;;;;;5105248;27;20075;-62
2023/07/26 09:28:29;;;;;;;2.90;2.00;;;;;;;;;;5105015;28;20435;-63
2023/07/26 09:30:59;;;;;;;5.15;2.28;;;;;;;;;;5102225;28;20461;-63
2023/07/26 09:33:28;;;;;;;4.15;1.88;;;;;;;;;;5106360;28;20043;-62
2023/07/26 09:35:57;;;;;;;3.55;2.05;;;;;;;;;;5106449;28;20244;-61
2023/07/26 09:38:26;;;;;;;3.75;2.28;;;;;;;;;;5105046;28;20051;-61
2023/07/26 09:40:56;;;;;;;5.22;2.08;;;;;;;;;;5104682;28;20046;-62
2023/07/26 09:43:29;;;;;;;4.82;2.28;;;;;;;;;;5107311;28;20463;-61
2023/07/26 09:46:02;;;;;;;3.95;2.42;;;;;;;;;;5106551;28;20138;-63
2023/07/26 09:48:34;;;;;;;3.88;1.88;;;;;;;;;;5105831;27;20058;-63
2023/07/26 09:51:07;;;;;;;5.13;2.25;;;;;;;;;;5108251;28;20048;-62
2023/07/26 09:53:38;;;;;;;3.28;2.20;;;;;;;;;;5104927;28;20054;-63
2023/07/26 09:56:08;;;;;;;3.05;2.13;;;;;;;;;;5107190;28;20043;-63
2023/07/26 09:58:37;;;;;;;5.93;2.20;;;;;;;;;;5105111;28;20063;-62
2023/07/26 10:01:06;;;;;;;5.15;2.30;;;;;;;;;;5104958;28;20057;-61
2023/07/26 10:03:37;;;;;;;4.95;2.47;;;;;;;;;;5101323;27;20573;-62
2023/07/26 10:06:06;;;;;;;3.53;1.90;;;;;;;;;;5105659;28;20040;-62
2023/07/26 10:08:36;;;;;;;2.13;1.73;;;;;;;;;;5107112;28;20040;-63
2023/07/26 10:11:05;;;;;;;3.30;2.40;;;;;;;;;;5098755;28;20044;-61
2023/07/26 10:13:35;;;;;;;3.67;2.20;;;;;;;;;;5105404;28;20484;-61
2023/07/26 10:16:04;;;;;;;3.70;1.70;;;;;;;;;;5105476;28;20108;-62
2023/07/26 10:18:34;;;;;;;2.75;1.83;;;;;;;;;;5104950;28;20083;-61
2023/07/26 10:21:03;;;;;;;3.33;1.90;;;;;;;;;;5105249;28;20054;-64
2023/07/26 10:23:32;;;;;;;2.05;1.85;;;;;;;;;;5105260;28;20039;-65
2023/07/26 10:26:02;;;;;;;3.42;1.50;;;;;;;;;;5104648;28;20051;-63
2023/07/26 10:28:33;;;;;;;7.10;1.98;;;;;;;;;;5106082;28;20075;-63
2023/07/26 10:31:04;;;;;;;1.75;1.45;;;;;;;;;;5104570;28;20047;-62
2023/07/26 10:33:33;;;;;;;1.88;1.50;;;;;;;;;;5103493;28;20056;-62
2023/07/26 10:36:04;;;;;;;1.63;1.35;;;;;;;;;;5103621;28;20056;-63
2023/07/26 10:38:32;;;;;;;2.85;1.38;;;;;;;;;;5108988;28;20047;-62
2023/07/26 10:41:21;;;;;;;4.13;1.15;;;;;;;;;;5107355;28;20064;-63
2023/07/26 10:43:50;;;;;;;2.00;1.38;;;;;;;;;;5105204;27;20044;-64
2023/07/26 10:46:20;;;;;;;2.50;1.60;;;;;;;;;;5108272;28;20071;-62
2023/07/26 10:48:48;;;;;;;2.45;1.30;;;;;;;;;;5110372;28;20503;-61
2023/07/26 10:51:23;;;;;;;3.05;1.45;;;;;;;;;;5111676;28;20043;-63
2023/07/26 10:53:53;;;;;;;1.85;1.25;;;;;;;;;;5109205;27;20551;-63
2023/07/26 10:56:24;;;;;;;3.38;1.30;;;;;;;;;;5109475;27;20604;-61
2023/07/26 10:58:54;;;;;;;6.32;1.60;;;;;;;;;;5108549;27;20100;-61
2023/07/26 11:01:40;;;;;;;2.40;1.30;;;;;;;;;;5105973;28;20054;-62
2023/07/26 11:04:12;;;;;;;2.58;1.45;;;;;;;;;;5104429;28;20050;-63
2023/07/26 11:06:54;;;;;;;1.92;1.30;;;;;;;;;;5107561;28;20083;-65
2023/07/26 11:09:25;;;;;;;2.38;1.30;;;;;;;;;;5111038;28;20040;-61
2023/07/26 11:11:55;;;;;;;3.13;1.20;;;;;;;;;;5108737;27;20075;-61
2023/07/26 11:14:24;;;;;;;2.75;1.25;;;;;;;;;;5106381;27;20055;-67
2023/07/26 11:16:54;;;;;;;2.83;1.42;;;;;;;;;;5105440;28;20039;-63
2023/07/26 11:19:26;;;;;;;2.65;1.30;;;;;;;;;;5107814;28;20052;-65
2023/07/26 11:22:03;;;;;;;6.30;1.98;;;;;;;;;;5105006;27;20040;-62
2023/07/26 11:24:31;;;;;;;5.43;1.05;;;;;;;;;;5101914;28;20108;-63
2023/07/26 11:27:05;;;;;;;2.83;1.15;;;;;;;;;;5107713;28;20047;-66
2023/07/26 11:29:34;;;;;;;2.22;1.02;;;;;;;;;;5108872;28;20389;-62
2023/07/26 11:32:04;;;;;;;1.88;1.08;;;;;;;;;;5109583;28;20072;-64
2023/07/26 11:34:32;;;;;;;3.53;1.27;;;;;;;;;;5106965;28;20036;-62
2023/07/26 11:37:08;;;;;;;3.90;1.48;;;;;;;;;;5107922;28;20092;-62
2023/07/26 11:39:36;;;;;;;3.00;1.52;;;;;;;;;;5101889;27;20051;-63
2023/07/26 11:42:05;;;;;;;2.42;1.30;;;;;;;;;;5102396;27;20089;-65
2023/07/26 11:44:34;;;;;;;3.55;1.40;;;;;;;;;;5102814;27;20055;-61
2023/07/26 11:47:04;;;;;;;1.65;1.15;;;;;;;;;;5099926;27;20089;-62
2023/07/26 11:49:33;;;;;;;3.85;1.90;;;;;;;;;;5104011;27;20047;-61
2023/07/26 11:52:01;;;;;;;11.02;2.75;;;;;;;;;;5107214;28;20093;-65
2023/07/26 11:54:31;;;;;;;4.85;1.80;;;;;;;;;;5105957;27;20155;-61
2023/07/26 11:56:59;;;;;;;7.78;2.35;;;;;;;;;;5102974;27;20488;-61
2023/07/26 11:59:28;;;;;;;5.75;1.77;;;;;;;;;;5105655;28;20051;-61
2023/07/26 12:01:56;;;;;;;4.80;2.20;;;;;;;;;;5108818;28;20048;-61
2023/07/26 12:04:26;;;;;;;5.03;2.17;;;;;;;;;;5107511;28;20052;-61
2023/07/26 12:06:55;;;;;;;3.38;1.50;;;;;;;;;;5109109;27;20039;-62
2023/07/26 12:09:23;;;;;;;4.15;1.70;;;;;;;;;;5107586;28;20760;-61
2023/07/26 12:11:53;;;;;;;3.33;1.67;;;;;;;;;;5108514;27;20054;-62
2023/07/26 12:14:22;;;;;;;3.45;1.80;;;;;;;;;;5103281;27;20055;-60
2023/07/26 12:16:51;;;;;;;4.80;1.70;;;;;;;;;;5103745;28;20458;-61
2023/07/26 12:19:21;;;;;;;2.47;1.50;;;;;;;;;;5104877;28;20048;-60
2023/07/26 12:21:51;;;;;;;3.92;1.92;;;;;;;;;;5108972;28;20054;-60
2023/07/26 12:24:20;;;;;;;2.53;1.42;;;;;;;;;;5107235;28;20055;-60
2023/07/26 12:26:48;;;;;;;4.40;1.50;;;;;;;;;;5105541;28;20046;-61
2023/07/26 12:29:18;;;;;;;2.70;1.63;;;;;;;;;;5108090;28;20067;-60
2023/07/26 12:31:46;;;;;;;2.10;1.38;;;;;;;;;;5105245;27;20629;-60
2023/07/26 12:34:15;;;;;;;4.57;1.80;;;;;;;;;;5107101;28;20442;-60
2023/07/26 12:36:49;;;;;;;7.10;1.80;;;;;;;;;;5108752;28;20377;-60
2023/07/26 12:39:19;;;;;;;5.22;2.13;;;;;;;;;;5102132;28;20108;-63
2023/07/26 12:41:48;;;;;;;1.60;1.30;;;;;;;;;;5107883;28;20481;-60
2023/07/26 12:44:17;;;;;;;2.30;1.40;;;;;;;;;;5106575;27;20949;-61
2023/07/26 12:46:47;;;;;;;4.45;1.92;;;;;;;;;;5108138;27;20058;-60
2023/07/26 12:49:18;;;;;;;2.22;1.38;;;;;;;;;;5103726;28;20044;-60
2023/07/26 12:51:48;;;;;;;3.22;1.70;;;;;;;;;;5105425;28;20043;-64
2023/07/26 12:54:18;;;;;;;2.70;1.42;;;;;;;;;;5099284;27;20561;-61
2023/07/26 12:56:47;;;;;;;3.00;1.30;;;;;;;;;;5102471;28;20053;-60
2023/07/26 12:59:15;;;;;;;3.35;1.73;;;;;;;;;;5100230;28;20055;-63
2023/07/26 13:01:43;;;;;;;3.50;1.60;;;;;;;;;;5104714;28;20051;-62
2023/07/26 13:04:12;;;;;;;2.50;1.33;;;;;;;;;;5097431;28;20051;-61
2023/07/26 13:06:41;;;;;;;4.07;1.60;;;;;;;;;;5103952;28;20093;-62
2023/07/26 13:09:09;;;;;;;2.42;1.70;;;;;;;;;;5103826;27;20116;-61
2023/07/26 13:11:39;;;;;;;1.70;1.27;;;;;;;;;;5102703;28;20057;-60
2023/07/26 13:14:08;;;;;;;4.18;2.08;;;;;;;;;;5107224;28;20130;-60
2023/07/26 13:16:36;;;;;;;3.67;1.98;;;;;;;;;;5105752;28;20051;-60
2023/07/26 13:19:05;;;;;;;5.13;2.47;;;;;;;;;;5106292;28;20055;-62
2023/07/26 13:21:34;;;;;;;3.10;1.80;;;;;;;;;;5104926;28;20057;-60
2023/07/26 13:24:02;;;;;;;3.83;2.35;;;;;;;;;;5107070;28;20067;-60
2023/07/26 13:26:31;;;;;;;7.78;1.98;;;;;;;;;;5106836;28;20048;-62
2023/07/26 13:29:01;;;;;;;1.95;1.58;;;;;;;;;;5106947;28;20040;-61
2023/07/26 13:31:29;;;;;;;2.80;1.55;;;;;;;;;;5104486;28;20093;-60
2023/07/26 13:33:58;;;;;;;2.33;2.13;;;;;;;;;;5105596;28;20519;-65
2023/07/26 13:36:26;;;;;;;2.85;1.58;;;;;;;;;;5108153;28;20055;-60
2023/07/26 13:38:55;;;;;;;2.35;1.50;;;;;;;;;;5106392;27;20722;-61
2023/07/26 13:41:23;;;;;;;2.55;1.70;;;;;;;;;;5106177;27;20109;-61
2023/07/26 13:43:51;;;;;;;2.97;2.25;;;;;;;;;;5101016;28;20043;-60
2023/07/26 13:46:21;;;;;;;3.17;1.35;;;;;;;;;;5107698;28;20036;-61
2023/07/26 13:49:01;;;;;;;2.75;1.67;;;;;;;;;;5106295;28;20119;-63
2023/07/26 13:51:29;;;;;;;1.77;1.35;;;;;;;;;;5105453;28;20051;-61
2023/07/26 13:53:58;;;;;;;1.92;1.10;;;;;;;;;;5105645;28;20331;-61
2023/07/26 13:56:26;;;;;;;2.03;1.58;;;;;;;;;;5107192;27;20042;-65
2023/07/26 13:58:55;;;;;;;1.95;1.10;;;;;;;;;;5107338;28;20039;-61
2023/07/26 14:01:25;;;;;;;1.48;1.23;;;;;;;;;;5106624;28;20515;-65
2023/07/26 14:03:54;;;;;;;2.70;1.42;;;;;;;;;;5103017;28;20138;-65
2023/07/26 14:06:23;;;;;;;2.85;1.42;;;;;;;;;;5103481;28;20108;-63
2023/07/26 14:08:52;;;;;;;1.67;1.38;;;;;;;;;;5106241;28;20476;-67
2023/07/26 14:11:20;;;;;;;3.30;1.65;;;;;;;;;;5100881;28;20109;-62
2023/07/26 14:13:49;;;;;;;2.92;1.58;;;;;;;;;;5102106;28;20043;-66
2023/07/26 14:16:17;;;;;;;3.30;1.25;;;;;;;;;;5104105;28;20088;-62
2023/07/26 14:18:52;;;;;;;2.65;1.73;;;;;;;;;;5099271;28;20097;-67
2023/07/26 14:21:20;;;;;;;3.65;1.52;;;;;;;;;;5104552;28;20063;-64
2023/07/26 14:23:49;;;;;;;3.58;1.58;;;;;;;;;;5107095;27;20404;-63
2023/07/26 14:26:17;;;;;;;2.00;1.20;;;;;;;;;;5106650;28;20112;-63
2023/07/26 14:28:45;;;;;;;2.22;1.30;;;;;;;;;;5105893;28;20476;-64
2023/07/26 14:31:14;;;;;;;1.63;1.25;;;;;;;;;;5102328;28;20484;-63
2023/07/26 14:33:42;;;;;;;3.97;1.10;;;;;;;;;;5106115;28;20045;-63
2023/07/26 14:36:12;;;;;;;2.05;1.15;;;;;;;;;;5099808;28;20499;-66
2023/07/26 14:38:40;;;;;;;2.35;1.23;;;;;;;;;;5103775;28;20039;-64
2023/07/26 14:41:09;;;;;;;1.55;1.20;;;;;;;;;;5105567;28;20093;-63
2023/07/26 14:43:37;;;;;;;2.08;1.15;;;;;;;;;;5106749;28;20047;-63
2023/07/26 14:46:07;;;;;;;2.10;1.00;;;;;;;;;;5105815;28;20070;-63
2023/07/26 14:48:36;;;;;;;6.38;1.38;;;;;;;;;;5102794;28;20536;-67
2023/07/26 14:51:04;;;;;;;2.30;1.30;;;;;;;;;;5106826;28;20109;-66
2023/07/26 14:53:34;;;;;;;3.25;1.13;;;;;;;;;;5107195;28;20104;-63